Time;durP1;ratioP1;P1;durP2;ratioP2;P2;SDS_P1;SDS_P2;PMS_P1;PMS_P2;Temp;Humidity;BMP_temperature;BMP_pressure;BME280_temperature;BME280_humidity;BME280_pressure;Samples;Min_cycle;Max_cycle;Signal;HPM_P1;HPM_P2
2023/05/10 00:00:52;;;;;;;5.18;3.35;;;;;;;10.57;84.61;97746.78;4179617;28;20136;-71
2023/05/10 00:02:52;;;;;;;4.32;3.42;;;;;;;10.57;84.43;97741.25;4179229;28;20119;-71
2023/05/10 00:04:52;;;;;;;3.80;3.10;;;;;;;10.60;83.83;97734.16;4178465;28;20558;-71
2023/05/10 00:06:53;;;;;;;4.22;3.35;;;;;;;10.62;83.93;97745.59;4177851;28;20541;-71
2023/05/10 00:08:54;;;;;;;4.88;3.40;;;;;;;10.65;83.98;97737.28;4180471;28;20396;-71
2023/05/10 00:10:54;;;;;;;4.03;3.60;;;;;;;10.72;84.00;97741.25;4179684;28;20049;-71
2023/05/10 00:12:55;;;;;;;4.05;3.08;;;;;;;10.74;83.71;97745.19;4184631;28;20053;-71
2023/05/10 00:14:55;;;;;;;3.92;3.42;;;;;;;10.78;83.70;97736.88;4184690;28;20055;-71
2023/05/10 00:16:56;;;;;;;4.35;3.42;;;;;;;10.86;84.30;97735.69;4179569;28;20067;-71
2023/05/10 00:18:56;;;;;;;4.07;3.35;;;;;;;10.90;83.15;97733.69;4181798;28;20135;-71
2023/05/10 00:20:56;;;;;;;5.32;3.45;;;;;;;10.91;83.80;97726.97;4182214;28;20388;-71
2023/05/10 00:22:56;;;;;;;5.25;3.58;;;;;;;10.90;83.77;97719.84;4174521;28;20052;-71
2023/05/10 00:24:57;;;;;;;3.83;3.05;;;;;;;10.90;83.61;97723.41;4177706;28;20522;-71
2023/05/10 00:26:58;;;;;;;3.58;3.25;;;;;;;10.87;83.04;97718.69;4181278;28;20550;-71
2023/05/10 00:28:58;;;;;;;3.58;3.17;;;;;;;10.86;83.05;97714.34;4179001;28;20065;-71
2023/05/10 00:30:58;;;;;;;5.50;3.42;;;;;;;10.83;83.43;97717.88;4187525;28;20048;-71
2023/05/10 00:32:59;;;;;;;5.25;3.70;;;;;;;10.83;83.62;97723.41;4186269;28;20041;-71
2023/05/10 00:34:59;;;;;;;4.90;3.28;;;;;;;10.83;83.80;97717.88;4184979;28;20158;-71
2023/05/10 00:37:00;;;;;;;4.20;3.33;;;;;;;10.84;84.23;97721.44;4183790;28;20041;-71
2023/05/10 00:39:00;;;;;;;4.80;3.50;;;;;;;10.85;84.32;97717.50;4182658;28;20134;-71
2023/05/10 00:41:00;;;;;;;7.45;3.47;;;;;;;10.85;84.65;97721.06;4186335;28;20376;-71
2023/05/10 00:43:01;;;;;;;6.70;3.63;;;;;;;10.85;85.80;97714.75;4186958;28;20040;-71
2023/05/10 00:45:01;;;;;;;4.90;3.70;;;;;;;10.86;85.55;97719.88;4182030;28;20083;-71
2023/05/10 00:47:02;;;;;;;4.20;3.50;;;;;;;10.89;85.46;97715.50;4184230;28;20076;-71
2023/05/10 00:49:02;;;;;;;3.92;3.35;;;;;;;10.89;85.38;97715.50;4178194;28;20106;-71
2023/05/10 00:51:03;;;;;;;5.07;3.78;;;;;;;10.90;85.11;97714.31;4188139;28;20207;-71
2023/05/10 00:53:03;;;;;;;4.40;3.50;;;;;;;10.87;84.75;97713.16;4185459;28;20032;-71
2023/05/10 00:55:05;;;;;;;4.60;3.85;;;;;;;10.91;84.05;97708.38;4185018;28;20059;-70
2023/05/10 00:57:06;;;;;;;4.90;3.60;;;;;;;10.92;83.79;97715.53;4185063;28;20090;-71
2023/05/10 00:59:08;;;;;;;5.43;3.40;;;;;;;10.91;84.66;97707.59;4178872;28;20049;-71
2023/05/10 01:01:09;;;;;;;4.95;3.65;;;;;;;10.91;84.17;97708.38;4186279;28;20093;-71
2023/05/10 01:03:11;;;;;;;5.65;3.78;;;;;;;10.91;85.18;97705.63;4186373;28;20044;-71
2023/05/10 01:05:11;;;;;;;5.32;3.92;;;;;;;10.90;85.72;97706.03;4182270;28;20561;-71
2023/05/10 01:07:12;;;;;;;4.85;3.70;;;;;;;10.88;86.64;97702.88;4184627;28;20076;-71
2023/05/10 01:09:12;;;;;;;6.88;4.40;;;;;;;10.90;86.04;97711.56;4181107;28;20052;-71
2023/05/10 01:11:13;;;;;;;6.05;3.67;;;;;;;10.90;86.54;97704.03;4187473;28;20123;-71
2023/05/10 01:13:23;;;;;;;4.82;3.78;;;;;;;10.92;86.33;97703.63;4178324;28;20140;-71
2023/05/10 01:15:23;;;;;;;5.93;4.38;;;;;;;10.96;87.37;97701.66;4184393;28;20047;-71
2023/05/10 01:17:24;;;;;;;5.47;4.28;;;;;;;10.95;87.07;97698.09;4185313;28;20044;-71
2023/05/10 01:19:34;;;;;;;6.18;3.38;;;;;;;10.96;87.64;97712.75;4180165;28;20459;-71
2023/05/10 01:21:53;;;;;;;4.97;3.65;;;;;;;10.97;87.58;97708.78;4183801;28;20059;-71
2023/05/10 01:24:02;;;;;;;4.25;3.53;;;;;;;10.96;87.20;97707.19;4184347;28;20048;-71
2023/05/10 01:26:20;;;;;;;5.00;3.65;;;;;;;10.98;86.83;97711.13;4184878;28;20492;-71
2023/05/10 01:28:32;;;;;;;5.13;3.60;;;;;;;10.96;87.26;97710.75;4183454;28;20090;-71
2023/05/10 01:30:57;;;;;;;4.22;3.60;;;;;;;10.96;87.21;97707.19;4183378;28;20051;-71
2023/05/10 01:33:13;;;;;;;5.05;3.70;;;;;;;10.95;87.01;97711.94;4178088;28;20152;-71
2023/05/10 01:35:18;;;;;;;4.57;3.97;;;;;;;10.95;87.63;97708.41;4185746;28;20193;-71
2023/05/10 01:37:31;;;;;;;5.82;3.50;;;;;;;10.96;87.49;97718.28;4190400;28;20049;-71
2023/05/10 01:39:43;;;;;;;4.95;4.15;;;;;;;10.96;87.44;97710.75;4180832;28;20048;-71
2023/05/10 01:41:57;;;;;;;5.90;3.63;;;;;;;10.96;88.14;97713.53;4183024;28;20083;-71
2023/05/10 01:44:05;;;;;;;7.25;3.92;;;;;;;10.96;89.26;97712.75;4184043;28;20052;-71
2023/05/10 01:46:10;;;;;;;4.78;3.80;;;;;;;10.94;90.38;97706.81;4186136;28;20109;-71
2023/05/10 01:48:13;;;;;;;4.95;3.70;;;;;;;10.93;90.53;97708.78;4180066;28;20059;-71
2023/05/10 01:50:21;;;;;;;4.47;3.90;;;;;;;10.92;90.34;97707.22;4184298;28;20032;-71
2023/05/10 01:52:54;;;;;;;4.65;3.97;;;;;;;10.95;89.95;97714.72;4184686;28;20480;-71
2023/05/10 01:55:04;;;;;;;4.30;3.80;;;;;;;10.96;89.10;97707.19;4183163;28;20126;-71
2023/05/10 01:57:08;;;;;;;5.40;4.00;;;;;;;10.95;90.23;97713.94;4184801;28;20048;-71
2023/05/10 01:59:15;;;;;;;5.18;4.20;;;;;;;10.96;91.39;97713.53;4181143;28;20044;-71
2023/05/10 02:01:16;;;;;;;5.45;4.00;;;;;;;10.94;91.95;97712.34;4184047;28;20104;-71
2023/05/10 02:03:20;;;;;;;5.20;4.70;;;;;;;10.94;92.71;97709.59;4175697;28;20496;-71
2023/05/10 02:05:21;;;;;;;4.28;3.50;;;;;;;10.93;92.43;97716.31;4184945;28;20055;-71
2023/05/10 02:07:24;;;;;;;4.15;3.35;;;;;;;10.94;91.91;97709.59;4185159;28;20040;-71
2023/05/10 02:09:27;;;;;;;6.90;4.20;;;;;;;10.92;93.43;97715.53;4185587;28;20070;-71
2023/05/10 02:11:29;;;;;;;8.30;3.97;;;;;;;10.92;93.00;97711.94;4181218;28;20043;-71
2023/05/10 02:13:34;;;;;;;5.20;4.00;;;;;;;10.91;92.89;97704.81;4181481;28;20289;-72
2023/05/10 02:15:36;;;;;;;10.68;4.30;;;;;;;10.92;92.80;97714.72;4185819;28;20289;-71
2023/05/10 02:17:37;;;;;;;4.50;3.65;;;;;;;10.95;91.54;97711.16;4185864;28;20041;-71
2023/05/10 02:19:40;;;;;;;4.72;3.70;;;;;;;10.94;91.30;97713.13;4181184;28;20068;-71
2023/05/10 02:21:42;;;;;;;6.20;4.55;;;;;;;10.97;92.29;97719.84;4186959;28;20076;-71
2023/05/10 02:23:44;;;;;;;5.43;3.77;;;;;;;10.92;94.64;97711.94;4179492;28;20124;-71
2023/05/10 02:25:45;;;;;;;5.33;4.10;;;;;;;10.91;96.16;97713.13;4186796;28;20040;-71
2023/05/10 02:27:47;;;;;;;4.75;4.07;;;;;;;10.89;97.51;97713.53;4183507;28;20433;-71
2023/05/10 02:29:49;;;;;;;6.18;4.18;;;;;;;10.84;98.71;97708.44;4183767;28;20053;-71
2023/05/10 02:31:52;;;;;;;5.53;4.20;;;;;;;10.82;98.15;97708.00;4184047;28;20123;-71
2023/05/10 02:33:54;;;;;;;6.05;4.30;;;;;;;10.83;98.15;97704.06;4180063;28;20087;-71
2023/05/10 02:35:55;;;;;;;5.05;4.13;;;;;;;10.84;97.41;97711.19;4178751;28;20047;-71
2023/05/10 02:37:58;;;;;;;5.53;4.07;;;;;;;10.85;99.42;97711.97;4184581;28;20044;-71
2023/05/10 02:39:59;;;;;;;5.20;3.85;;;;;;;10.87;100.00;97712.38;4181156;28;20215;-71
2023/05/10 02:42:02;;;;;;;8.00;4.35;;;;;;;10.85;100.00;97707.22;4183989;28;20060;-71
2023/05/10 02:44:03;;;;;;;5.82;4.32;;;;;;;10.84;100.00;97716.72;4183091;28;20412;-71
2023/05/10 02:46:03;;;;;;;5.00;4.50;;;;;;;10.79;100.00;97708.03;4179140;28;20527;-71
2023/05/10 02:48:04;;;;;;;6.63;4.25;;;;;;;10.77;100.00;97713.97;4183488;28;20033;-71
2023/05/10 02:50:05;;;;;;;5.22;3.97;;;;;;;10.80;100.00;97715.13;4184253;28;20119;-71
2023/05/10 02:52:08;;;;;;;6.57;4.78;;;;;;;10.80;100.00;97713.16;4181729;28;20487;-71
2023/05/10 02:54:24;;;;;;;6.70;4.70;;;;;;;10.78;100.00;97715.53;4184025;28;20044;-71
2023/05/10 02:56:31;;;;;;;5.57;4.28;;;;;;;10.75;100.00;97704.47;4183364;28;20036;-71
2023/05/10 02:58:31;;;;;;;7.05;5.00;;;;;;;10.74;100.00;97708.41;4184253;28;20048;-71
2023/05/10 03:00:32;;;;;;;5.50;4.50;;;;;;;10.73;100.00;97717.91;4178625;28;20047;-71
2023/05/10 03:02:32;;;;;;;14.43;6.20;;;;;;;10.73;100.00;97709.63;4179365;28;20444;-71
2023/05/10 03:04:33;;;;;;;7.90;4.97;;;;;;;10.73;100.00;97721.47;4185205;28;20122;-71
2023/05/10 03:06:33;;;;;;;10.27;5.40;;;;;;;10.75;100.00;97724.63;4181513;28;20128;-71
2023/05/10 03:08:33;;;;;;;5.93;4.65;;;;;;;10.77;100.00;97715.94;4181379;28;20131;-71
2023/05/10 03:10:53;;;;;;;7.05;5.22;;;;;;;10.72;100.00;97713.56;4184097;28;20052;-71
2023/05/10 03:13:00;;;;;;;7.32;5.20;;;;;;;10.64;100.00;97721.88;4205436;28;20328;-71
2023/05/10 03:15:25;;;;;;;5.72;4.78;;;;;;;10.55;100.00;97710.41;4183214;28;20127;-71
2023/05/10 03:17:43;;;;;;;11.75;5.20;;;;;;;10.50;100.00;97704.50;4181077;28;20462;-71
2023/05/10 03:19:54;;;;;;;9.18;5.10;;;;;;;10.39;100.00;97708.06;4179965;28;20466;-71
2023/05/10 03:21:59;;;;;;;7.03;4.90;;;;;;;10.30;100.00;97695.81;4182995;28;20082;-71
2023/05/10 03:24:06;;;;;;;7.20;5.25;;;;;;;10.27;100.00;97710.44;4184137;28;20067;-71
2023/05/10 03:26:07;;;;;;;9.00;5.55;;;;;;;10.23;100.00;97698.56;4179078;28;20094;-71
2023/05/10 03:28:08;;;;;;;9.27;5.15;;;;;;;10.19;100.00;97712.38;4182225;28;20044;-71
2023/05/10 03:30:12;;;;;;;9.73;5.60;;;;;;;10.24;100.00;97708.44;4188221;28;20028;-71
2023/05/10 03:32:12;;;;;;;10.48;5.88;;;;;;;10.22;100.00;97708.03;4181700;28;20111;-71
2023/05/10 03:34:13;;;;;;;13.55;6.80;;;;;;;10.20;100.00;97710.41;4179067;28;20473;-71
2023/05/10 03:36:13;;;;;;;10.52;5.72;;;;;;;10.20;100.00;97705.66;4184310;28;20063;-71
2023/05/10 03:38:14;;;;;;;7.70;5.38;;;;;;;10.23;100.00;97706.88;4183302;28;20108;-71
2023/05/10 03:40:14;;;;;;;11.45;6.60;;;;;;;10.24;100.00;97708.44;4185107;28;20459;-71
2023/05/10 03:42:14;;;;;;;8.68;6.43;;;;;;;10.24;100.00;97719.50;4184252;28;20290;-71
2023/05/10 03:44:15;;;;;;;8.48;6.38;;;;;;;10.23;100.00;97712.41;4177916;28;20040;-71
2023/05/10 03:46:15;;;;;;;12.27;5.90;;;;;;;10.20;100.00;97713.97;4185289;28;20028;-71
2023/05/10 03:48:15;;;;;;;6.70;5.38;;;;;;;10.18;100.00;97710.81;4181577;28;20063;-71
2023/05/10 03:50:16;;;;;;;7.97;5.82;;;;;;;10.17;100.00;97711.97;4182397;28;20386;-71
2023/05/10 03:52:16;;;;;;;7.38;5.72;;;;;;;10.18;100.00;97709.97;4183808;28;20082;-71
2023/05/10 03:54:17;;;;;;;7.82;6.40;;;;;;;10.18;100.00;97713.56;4179860;28;20115;-71
2023/05/10 03:56:17;;;;;;;7.82;6.35;;;;;;;10.21;100.00;97729.34;4181928;28;20114;-71
2023/05/10 03:58:18;;;;;;;8.85;5.63;;;;;;;10.22;100.00;97727.38;4182449;28;20028;-71
2023/05/10 04:00:18;;;;;;;9.02;5.72;;;;;;;10.27;100.00;97719.53;4181119;28;20443;-71
2023/05/10 04:02:19;;;;;;;6.95;5.72;;;;;;;10.34;100.00;97721.47;4183885;28;20465;-71
2023/05/10 04:04:20;;;;;;;7.68;6.30;;;;;;;10.32;100.00;97718.31;4179538;28;20021;-72
2023/05/10 04:06:20;;;;;;;7.90;6.07;;;;;;;10.34;100.00;97725.06;4176724;28;20516;-71
2023/05/10 04:08:21;;;;;;;7.95;6.30;;;;;;;10.33;100.00;97723.47;4178349;28;20092;-71
2023/05/10 04:10:21;;;;;;;9.98;6.35;;;;;;;10.38;100.00;97722.28;4177549;28;20421;-71
2023/05/10 04:12:21;;;;;;;9.25;5.45;;;;;;;10.40;100.00;97720.69;4177663;28;20052;-71
2023/05/10 04:14:22;;;;;;;8.07;6.20;;;;;;;10.39;100.00;97732.94;4179732;28;20040;-71
2023/05/10 04:16:22;;;;;;;8.10;6.32;;;;;;;10.35;100.00;97723.09;4183118;28;20053;-71
2023/05/10 04:18:22;;;;;;;8.05;6.22;;;;;;;10.32;100.00;97732.16;4181485;28;20490;-71
2023/05/10 04:20:23;;;;;;;7.07;5.93;;;;;;;10.25;100.00;97721.09;4182355;28;20148;-71
2023/05/10 04:22:23;;;;;;;9.10;5.90;;;;;;;10.28;100.00;97723.06;4180946;28;20052;-71
2023/05/10 04:24:24;;;;;;;10.93;6.78;;;;;;;10.36;100.00;97732.97;4179514;28;20256;-71
2023/05/10 04:26:25;;;;;;;8.32;6.85;;;;;;;10.36;100.00;97727.44;4179294;28;20049;-71
2023/05/10 04:28:25;;;;;;;9.50;6.47;;;;;;;10.38;100.00;97727.81;4180271;28;20766;-72
2023/05/10 04:30:28;;;;;;;10.77;7.00;;;;;;;10.36;100.00;97733.75;4177010;28;20043;-71
2023/05/10 04:32:29;;;;;;;;;;;;;;;10.36;100.00;97732.97;4180822;28;20175;-71
2023/05/10 04:34:29;;;;;;;8.75;6.72;;;;;;;10.38;100.00;97716.75;4180700;28;19950;-71
2023/05/10 04:36:29;;;;;;;9.52;6.38;;;;;;;10.44;100.00;97720.72;4185938;28;20072;-71
2023/05/10 04:38:30;;;;;;;11.45;7.47;;;;;;;10.46;100.00;97725.84;4183021;28;20079;-71
2023/05/10 04:40:30;;;;;;;10.20;6.45;;;;;;;10.47;100.00;97724.66;4181188;28;20033;-71
2023/05/10 04:42:30;;;;;;;7.28;5.80;;;;;;;10.48;100.00;97720.69;4179047;28;20045;-71
2023/05/10 04:44:32;;;;;;;14.30;7.55;;;;;;;10.52;100.00;97725.06;4181240;28;20060;-71
2023/05/10 04:46:32;;;;;;;13.05;6.88;;;;;;;10.53;100.00;97731.38;4181059;28;20049;-71
2023/05/10 04:48:32;;;;;;;9.40;6.18;;;;;;;10.56;100.00;97723.06;4183196;28;20077;-71
2023/05/10 04:50:33;;;;;;;14.32;8.23;;;;;;;10.60;100.00;97726.63;4181325;28;20041;-71
2023/05/10 04:52:33;;;;;;;9.10;6.18;;;;;;;10.69;100.00;97729.00;4179781;28;20040;-71
2023/05/10 04:54:34;;;;;;;13.48;6.28;;;;;;;10.76;100.00;97736.47;4181674;28;20078;-72
2023/05/10 04:56:34;;;;;;;12.40;6.15;;;;;;;10.79;100.00;97738.47;4156156;28;20071;-71
2023/05/10 04:58:35;;;;;;;8.35;5.45;;;;;;;10.82;100.00;97738.44;4187092;28;20053;-71
2023/05/10 05:00:35;;;;;;;12.90;5.90;;;;;;;10.85;100.00;97734.13;4184298;28;20076;-71
2023/05/10 05:02:36;;;;;;;14.50;6.55;;;;;;;10.93;100.00;97738.47;4182086;28;20086;-71
2023/05/10 05:04:36;;;;;;;9.90;5.53;;;;;;;11.01;100.00;97744.78;4181494;28;20048;-71
2023/05/10 05:06:36;;;;;;;8.82;5.35;;;;;;;11.07;100.00;97752.25;4181235;28;20052;-71
2023/05/10 05:08:37;;;;;;;6.13;4.78;;;;;;;11.13;100.00;97750.66;4180219;28;20405;-71
2023/05/10 05:10:37;;;;;;;5.88;4.82;;;;;;;11.20;100.00;97750.66;4177885;28;20711;-72
2023/05/10 05:12:37;;;;;;;8.40;4.93;;;;;;;11.24;100.00;97759.72;4180568;28;20053;-71
2023/05/10 05:14:38;;;;;;;6.35;4.68;;;;;;;11.33;100.00;97755.72;4182294;28;20062;-72
2023/05/10 05:16:38;;;;;;;7.00;4.78;;;;;;;11.39;100.00;97754.13;4187991;28;20056;-72
2023/05/10 05:18:38;;;;;;;5.60;4.18;;;;;;;11.42;100.00;97754.16;4184950;28;20519;-71
2023/05/10 05:20:39;;;;;;;8.50;4.38;;;;;;;11.46;100.00;97749.38;4181815;28;20055;-73
2023/05/10 05:22:39;;;;;;;4.40;4.00;;;;;;;11.54;100.00;97759.22;4183570;28;20123;-72
2023/05/10 05:24:39;;;;;;;6.03;4.57;;;;;;;11.57;100.00;97760.41;4187246;28;20564;-72
2023/05/10 05:26:39;;;;;;;5.20;4.07;;;;;;;11.62;100.00;97751.69;4182725;28;20079;-72
2023/05/10 05:28:40;;;;;;;5.32;4.13;;;;;;;11.68;100.00;97763.94;4183897;28;20045;-72
2023/05/10 05:30:40;;;;;;;5.03;4.13;;;;;;;11.73;100.00;97760.72;4185228;28;20041;-72
2023/05/10 05:32:41;;;;;;;6.13;3.88;;;;;;;11.77;100.00;97772.59;4183035;28;20049;-72
2023/05/10 05:34:41;;;;;;;6.43;4.10;;;;;;;11.82;100.00;97774.97;4180948;28;20045;-72
2023/05/10 05:36:41;;;;;;;5.20;4.10;;;;;;;11.86;100.00;97774.19;4183347;28;20048;-72
2023/05/10 05:38:42;;;;;;;4.43;3.67;;;;;;;11.91;100.00;97779.28;4185130;28;20044;-72
2023/05/10 05:40:43;;;;;;;6.38;3.78;;;;;;;11.96;100.00;97789.97;4179669;28;20067;-72
2023/05/10 05:42:43;;;;;;;5.07;3.50;;;;;;;12.05;100.00;97791.09;4187436;28;20140;-72
2023/05/10 05:44:44;;;;;;;5.00;3.67;;;;;;;12.09;100.00;97778.00;4185766;28;20036;-72
2023/05/10 05:46:44;;;;;;;3.17;2.70;;;;;;;12.17;100.00;97789.84;4186838;28;20040;-72
2023/05/10 05:48:45;;;;;;;4.82;2.60;;;;;;;12.23;100.00;97790.97;4183268;28;20037;-72
2023/05/10 05:50:45;;;;;;;4.20;2.80;;;;;;;12.27;100.00;97793.75;4186450;28;20320;-72
2023/05/10 05:52:46;;;;;;;3.70;2.65;;;;;;;12.30;100.00;97793.72;4180298;28;20467;-72
2023/05/10 05:54:46;;;;;;;2.83;2.17;;;;;;;12.33;100.00;97794.91;4184588;28;20480;-72
2023/05/10 05:56:46;;;;;;;2.85;2.10;;;;;;;12.35;100.00;97806.38;4181866;28;20056;-72
2023/05/10 05:58:47;;;;;;;2.90;2.00;;;;;;;12.37;100.00;97807.53;4184648;28;20083;-72
2023/05/10 06:00:48;;;;;;;3.08;2.20;;;;;;;12.38;100.00;97811.09;4182127;28;20871;-72
2023/05/10 06:02:48;;;;;;;7.55;5.63;;;;;;;12.40;100.00;97797.63;4184113;28;20055;-72
2023/05/10 06:04:48;;;;;;;10.75;7.25;;;;;;;12.44;100.00;97815.03;4187498;28;20036;-72
2023/05/10 06:06:49;;;;;;;6.93;4.82;;;;;;;12.45;100.00;97813.84;4184017;28;20163;-72
2023/05/10 06:08:49;;;;;;;5.05;3.83;;;;;;;12.54;100.00;97813.38;4180112;28;20344;-72
2023/05/10 06:10:49;;;;;;;4.30;3.60;;;;;;;12.58;100.00;97820.50;4180753;28;20063;-72
2023/05/10 06:12:50;;;;;;;4.45;2.80;;;;;;;12.63;100.00;97817.28;4184018;28;20041;-72
2023/05/10 06:14:50;;;;;;;3.38;2.20;;;;;;;12.65;100.00;97816.88;4183486;28;20511;-72
2023/05/10 06:16:51;;;;;;;3.60;2.00;;;;;;;12.69;100.00;97820.41;4181536;28;20063;-72
2023/05/10 06:18:51;;;;;;;2.65;1.70;;;;;;;12.72;100.00;97822.38;4185785;28;20047;-72
2023/05/10 06:20:51;;;;;;;5.57;4.32;;;;;;;12.78;100.00;97817.19;4180761;28;20049;-72
2023/05/10 06:22:52;;;;;;;6.45;4.40;;;;;;;12.77;100.00;97815.59;4185047;28;20128;-72
2023/05/10 06:24:52;;;;;;;6.70;4.82;;;;;;;12.81;100.00;97827.44;4182975;28;20048;-72
2023/05/10 06:26:52;;;;;;;3.50;2.38;;;;;;;12.86;100.00;97822.25;4184481;28;20041;-72
2023/05/10 06:28:53;;;;;;;3.00;2.35;;;;;;;12.89;100.00;97826.97;4184099;28;20273;-72
2023/05/10 06:30:53;;;;;;;3.22;2.50;;;;;;;12.92;100.00;97828.97;4179189;28;20076;-72
2023/05/10 06:32:54;;;;;;;2.38;1.73;;;;;;;12.94;100.00;97834.88;4184811;28;20068;-72
2023/05/10 06:34:54;;;;;;;3.20;1.45;;;;;;;12.94;100.00;97823.78;4178886;28;20122;-72
2023/05/10 06:36:55;;;;;;;2.58;1.75;;;;;;;13.00;100.00;97849.13;4182354;28;20080;-72
2023/05/10 06:38:55;;;;;;;4.20;1.80;;;;;;;13.06;100.00;97838.34;4184973;28;20045;-72
2023/05/10 06:40:55;;;;;;;1.92;1.40;;;;;;;13.09;100.00;97834.78;4182751;28;20044;-72
2023/05/10 06:42:56;;;;;;;1.80;1.30;;;;;;;13.14;100.00;97843.44;4183305;28;20047;-72
2023/05/10 06:44:56;;;;;;;2.03;1.55;;;;;;;13.21;100.00;97842.63;4183343;28;20029;-72
2023/05/10 06:46:57;;;;;;;1.95;1.50;;;;;;;13.26;100.00;97844.19;4185764;28;20442;-72
2023/05/10 06:48:57;;;;;;;1.63;1.45;;;;;;;13.33;100.00;97856.00;4181553;28;20076;-72
2023/05/10 06:50:57;;;;;;;1.92;1.35;;;;;;;13.33;100.00;97850.44;4184111;28;20041;-72
2023/05/10 06:52:57;;;;;;;2.33;1.20;;;;;;;13.40;100.00;97858.69;4178988;28;20032;-72
2023/05/10 06:54:58;;;;;;;1.48;1.33;;;;;;;13.45;100.00;97860.25;4183887;28;20352;-72
2023/05/10 06:56:58;;;;;;;1.30;1.20;;;;;;;13.46;100.00;97854.28;4178550;28;20083;-72
2023/05/10 06:58:58;;;;;;;1.80;1.42;;;;;;;13.50;100.00;97848.69;4178581;28;20044;-72
2023/05/10 07:01:03;;;;;;;1.15;1.05;;;;;;;13.55;100.00;97851.00;4189367;28;20039;-71
2023/05/10 07:03:04;;;;;;;1.75;1.30;;;;;;;13.59;100.00;97857.34;4179914;28;20442;-72
2023/05/10 07:05:05;;;;;;;2.13;1.30;;;;;;;13.66;100.00;97853.69;4179592;28;20041;-72
2023/05/10 07:07:05;;;;;;;1.67;1.30;;;;;;;13.72;100.00;97857.59;4179527;28;20435;-72
2023/05/10 07:09:05;;;;;;;1.55;1.10;;;;;;;13.81;100.00;97855.09;4180522;28;20049;-72
2023/05/10 07:11:10;;;;;;;1.52;1.23;;;;;;;13.88;100.00;97860.56;4181813;28;20044;-72
2023/05/10 07:13:10;;;;;;;1.80;1.27;;;;;;;13.98;100.00;97861.66;4179142;28;20025;-72
2023/05/10 07:15:10;;;;;;;1.40;1.30;;;;;;;14.02;100.00;97854.84;4176870;28;20033;-72
2023/05/10 07:17:11;;;;;;;1.20;1.10;;;;;;;14.18;100.00;97859.03;4179189;28;20029;-72
2023/05/10 07:19:11;;;;;;;2.08;1.00;;;;;;;14.27;100.00;97862.88;4178963;28;20464;-72
2023/05/10 07:21:11;;;;;;;0.95;0.90;;;;;;;14.42;100.00;97865.50;4178871;28;20041;-72
2023/05/10 07:23:12;;;;;;;3.00;0.90;;;;;;;14.43;100.00;97867.84;4178315;28;20398;-72
2023/05/10 07:25:12;;;;;;;0.93;0.80;;;;;;;14.51;100.00;97861.00;4180077;28;20519;-72
2023/05/10 07:27:12;;;;;;;0.70;0.70;;;;;;;14.61;100.00;97862.06;4179513;28;20037;-72
2023/05/10 07:29:13;;;;;;;1.17;0.80;;;;;;;14.66;100.00;97872.72;4182829;28;20425;-72
2023/05/10 07:31:13;;;;;;;0.80;0.80;;;;;;;14.68;100.00;97867.53;4180823;28;20370;-72
2023/05/10 07:33:15;;;;;;;0.80;0.80;;;;;;;14.67;100.00;97877.09;4181822;28;20136;-72
2023/05/10 07:35:15;;;;;;;0.70;0.70;;;;;;;14.72;100.00;97879.38;4179307;28;20113;-72
2023/05/10 07:37:16;;;;;;;1.00;0.90;;;;;;;14.73;100.00;97878.19;4184713;28;20044;-72
2023/05/10 07:39:16;;;;;;;0.70;0.70;;;;;;;14.76;100.00;97882.91;4178857;28;20040;-72
2023/05/10 07:41:17;;;;;;;1.15;0.70;;;;;;;14.77;100.00;97875.34;4178689;28;20041;-72
2023/05/10 07:43:17;;;;;;;1.13;0.80;;;;;;;14.74;100.00;97881.78;4176561;28;20048;-72
2023/05/10 07:45:17;;;;;;;0.60;0.60;;;;;;;14.74;100.00;97884.56;4182795;28;20428;-72
2023/05/10 07:47:18;;;;;;;0.70;0.60;;;;;;;14.81;100.00;97884.44;4177693;28;20041;-72
2023/05/10 07:49:19;;;;;;;0.65;0.65;;;;;;;14.93;100.00;97883.06;4180845;28;20029;-72
2023/05/10 07:51:19;;;;;;;1.00;0.85;;;;;;;15.03;100.00;97887.69;4183388;28;20048;-72
2023/05/10 07:53:20;;;;;;;1.65;0.60;;;;;;;15.16;100.00;97892.25;4180933;28;20904;-72
2023/05/10 07:55:23;;;;;;;0.50;0.50;;;;;;;15.25;100.00;97882.56;4180093;28;20045;-72
2023/05/10 07:57:24;;;;;;;0.50;0.50;;;;;;;15.30;100.00;97894.00;4181790;28;20045;-72
2023/05/10 07:59:24;;;;;;;0.60;0.60;;;;;;;15.30;100.00;97887.63;4185972;28;20927;-72
2023/05/10 08:01:25;;;;;;;0.50;0.50;;;;;;;15.27;100.00;97885.72;4182805;28;20041;-72
2023/05/10 08:03:26;;;;;;;0.90;0.60;;;;;;;15.28;100.00;97898.44;4176244;28;20478;-72
2023/05/10 08:05:26;;;;;;;0.52;0.52;;;;;;;15.25;100.00;97891.72;4187586;28;20037;-72
2023/05/10 08:07:26;;;;;;;1.02;0.60;;;;;;;15.30;100.00;97898.78;4181712;28;20140;-72
2023/05/10 08:09:27;;;;;;;0.50;0.50;;;;;;;15.31;100.00;97895.59;4178268;28;20442;-72
2023/05/10 08:11:27;;;;;;;1.10;0.68;;;;;;;15.45;100.00;97906.47;4182323;28;20064;-72
2023/05/10 08:13:28;;;;;;;0.50;0.50;;;;;;;15.55;100.00;97892.78;4183172;28;20093;-72
2023/05/10 08:15:28;;;;;;;0.77;0.60;;;;;;;15.60;100.00;97895.88;4181341;28;20044;-71
2023/05/10 08:17:28;;;;;;;0.60;0.60;;;;;;;15.58;100.00;97900.31;4176880;28;20033;-72
2023/05/10 08:19:28;;;;;;;0.68;0.68;;;;;;;15.58;100.00;97915.03;4184478;28;20046;-72
2023/05/10 08:21:29;;;;;;;1.40;0.73;;;;;;;15.47;100.00;97906.06;4182283;28;20389;-72
2023/05/10 08:23:29;;;;;;;0.60;0.60;;;;;;;15.42;100.00;97918.50;4176088;28;20041;-72
2023/05/10 08:25:29;;;;;;;0.65;0.65;;;;;;;15.42;100.00;97917.72;4182958;28;20105;-72
2023/05/10 08:27:30;;;;;;;1.95;0.80;;;;;;;15.32;100.00;97919.47;4180867;28;20113;-72
2023/05/10 08:29:30;;;;;;;1.05;0.60;;;;;;;15.25;100.00;97921.56;4180964;28;20537;-72
2023/05/10 08:31:30;;;;;;;3.20;1.73;;;;;;;15.14;100.00;97922.53;4180072;28;20045;-72
2023/05/10 08:33:31;;;;;;;2.03;0.90;;;;;;;15.12;100.00;97918.59;4180997;28;20121;-72
2023/05/10 08:35:32;;;;;;;2.67;1.20;;;;;;;15.08;100.00;97926.22;4180769;28;20105;-72
2023/05/10 08:37:33;;;;;;;1.03;0.70;;;;;;;15.02;100.00;97931.47;4179275;28;20432;-72
2023/05/10 08:39:37;;;;;;;1.90;1.13;;;;;;;15.04;100.00;97923.47;4182856;28;20041;-72
2023/05/10 08:41:39;;;;;;;0.70;0.70;;;;;;;15.07;100.00;97916.28;4184621;28;20043;-72
2023/05/10 08:43:41;;;;;;;0.80;0.80;;;;;;;15.25;100.00;97927.16;4177993;28;20114;-72
2023/05/10 08:45:46;;;;;;;2.97;1.70;;;;;;;15.39;100.00;97918.53;4180081;28;20094;-72
2023/05/10 08:47:47;;;;;;;2.60;0.98;;;;;;;15.46;100.00;97921.22;4180760;28;20048;-72
2023/05/10 08:49:51;;;;;;;0.70;0.70;;;;;;;15.57;100.00;97924.63;4178710;28;20049;-72
2023/05/10 08:51:54;;;;;;;0.90;0.50;;;;;;;15.57;100.00;97933.00;4180041;28;20041;-72
2023/05/10 08:53:55;;;;;;;0.60;0.55;;;;;;;15.60;100.00;97925.75;4180712;28;20065;-72
2023/05/10 08:55:55;;;;;;;0.60;0.60;;;;;;;15.63;100.00;97934.09;4182873;28;20029;-72
2023/05/10 08:57:56;;;;;;;1.52;0.80;;;;;;;15.61;100.00;97932.94;4180309;28;20048;-72
2023/05/10 08:59:56;;;;;;;1.27;0.90;;;;;;;15.53;100.00;97939.81;4178088;28;20029;-72
2023/05/10 09:02:01;;;;;;;4.13;2.47;;;;;;;15.51;100.00;97934.69;4183651;28;20855;-72
2023/05/10 09:04:04;;;;;;;0.75;0.60;;;;;;;15.26;100.00;97951.81;4180483;28;20499;-72
2023/05/10 09:06:04;;;;;;;0.70;0.70;;;;;;;15.04;100.00;97947.75;4182570;28;20032;-72
2023/05/10 09:08:06;;;;;;;1.35;0.82;;;;;;;15.04;100.00;97951.34;4182756;28;20025;-72
2023/05/10 09:10:08;;;;;;;1.95;1.27;;;;;;;14.99;100.00;97964.97;4180507;28;20025;-72
2023/05/10 09:12:11;;;;;;;0.60;0.60;;;;;;;14.71;100.00;97957.78;4182695;28;20111;-72
2023/05/10 09:14:12;;;;;;;2.58;2.03;;;;;;;14.62;100.00;97961.06;4180025;28;20021;-72
2023/05/10 09:16:12;;;;;;;2.90;1.67;;;;;;;14.70;100.00;97968.13;4181123;28;20036;-72
2023/05/10 09:18:13;;;;;;;4.28;2.58;;;;;;;14.69;100.00;97963.75;4182227;28;20025;-72
2023/05/10 09:20:13;;;;;;;2.38;1.35;;;;;;;14.61;100.00;97963.06;4180455;28;20024;-72
2023/05/10 09:22:13;;;;;;;1.70;0.80;;;;;;;14.58;100.00;97979.81;4180051;28;20029;-72
2023/05/10 09:24:14;;;;;;;4.55;2.40;;;;;;;14.38;100.00;97981.63;4181125;28;20059;-72
2023/05/10 09:26:14;;;;;;;4.20;1.95;;;;;;;14.21;100.00;97980.59;4183257;28;20064;-72
2023/05/10 09:28:14;;;;;;;2.15;1.20;;;;;;;14.17;100.00;97979.88;4184281;28;20032;-72